Time,TemperatureF,DewpointF,PressureIn,WindDirection,WindDirectionDegrees,WindSpeedMPH,WindSpeedGustMPH,Humidity,HourlyPrecipIn,Conditions,Clouds,dailyrainin,SoftwareType,DateUTC
2015-01-30 00:14:00,74.7,-99.9,29.98,NE,49,2.0,4.0,0,0.00,,,0.00,weatherlink.com 1.10,2015-01-30 04:14:00,
2015-01-30 00:29:00,74.4,-99.9,29.98,ENE,74,3.0,4.0,0,0.00,,,0.00,weatherlink.com 1.10,2015-01-30 04:29:00,
2015-01-30 00:45:00,74.4,-99.9,29.97,ENE,61,3.0,7.0,0,0.00,,,0.00,weatherlink.com 1.10,2015-01-30 04:45:00,
2015-01-30 01:00:00,74.5,-99.9,29.97,ESE,112,5.0,8.0,0,0.00,,,0.00,weatherlink.com 1.10,2015-01-30 05:00:00,
2015-01-30 01:15:00,75.0,-99.9,29.96,ESE,105,7.0,9.0,0,0.00,,,0.00,weatherlink.com 1.10,2015-01-30 05:15:00,
2015-01-30 01:30:00,75.0,-99.9,29.96,East,101,2.0,11.0,0,0.00,,,0.00,weatherlink.com 1.10,2015-01-30 05:30:00,
2015-01-30 01:45:00,75.2,-99.9,29.95,East,101,5.0,7.0,0,0.00,,,0.00,weatherlink.com 1.10,2015-01-30 05:45:00,
2015-01-30 02:00:00,75.3,-99.9,29.95,East,98,5.0,8.0,0,0.00,,,0.00,weatherlink.com 1.10,2015-01-30 06:00:00,
2015-01-30 02:15:00,74.8,-99.9,29.94,East,83,5.0,6.0,0,0.00,,,0.00,weatherlink.com 1.10,2015-01-30 06:15:00,
2015-01-30 02:30:00,74.6,-99.9,29.93,ENE,74,2.0,6.0,0,0.00,,,0.00,weatherlink.com 1.10,2015-01-30 06:30:00,
2015-01-30 02:45:00,74.6,-99.9,29.93,East,79,3.0,5.0,0,0.00,,,0.00,weatherlink.com 1.10,2015-01-30 06:45:00,
2015-01-30 03:00:00,74.7,-99.9,29.93,East,90,2.0,4.0,0,0.00,,,0.00,weatherlink.com 1.10,2015-01-30 07:00:00,
2015-01-30 03:15:00,74.9,-99.9,29.92,ENE,76,2.0,5.0,0,0.00,,,0.00,weatherlink.com 1.10,2015-01-30 07:15:00,
2015-01-30 03:30:00,75.0,-99.9,29.92,East,91,6.0,6.0,0,0.00,,,0.00,weatherlink.com 1.10,2015-01-30 07:30:00,
2015-01-30 03:45:00,75.1,-99.9,29.92,ENE,74,2.0,4.0,0,0.00,,,0.00,weatherlink.com 1.10,2015-01-30 07:45:00,
2015-01-30 04:01:00,74.9,-99.9,29.92,East,85,4.0,8.0,0,0.00,,,0.00,weatherlink.com 1.10,2015-01-30 08:01:00,
2015-01-30 04:16:00,74.9,-99.9,29.91,East,83,10.0,11.0,0,0.00,,,0.00,weatherlink.com 1.10,2015-01-30 08:16:00,
2015-01-30 04:31:00,74.8,-99.9,29.92,East,98,7.0,13.0,0,0.00,,,0.00,weatherlink.com 1.10,2015-01-30 08:31:00,
2015-01-30 04:46:00,74.7,-99.9,29.92,ENE,76,6.0,9.0,0,0.00,,,0.00,weatherlink.com 1.10,2015-01-30 08:46:00,
2015-01-30 05:01:00,74.8,-99.9,29.92,East,89,7.0,11.0,0,0.00,,,0.00,weatherlink.com 1.10,2015-01-30 09:01:00,
2015-01-30 05:16:00,74.7,-99.9,29.93,East,101,5.0,10.0,0,0.00,,,0.00,weatherlink.com 1.10,2015-01-30 09:16:00,
2015-01-30 05:31:00,74.6,-99.9,29.93,ESE,110,9.0,11.0,0,0.00,,,0.00,weatherlink.com 1.10,2015-01-30 09:31:00,
2015-01-30 05:46:00,74.7,-99.9,29.93,East,94,7.0,12.0,0,0.00,,,0.00,weatherlink.com 1.10,2015-01-30 09:46:00,
2015-01-30 06:01:00,74.7,-99.9,29.93,East,83,7.0,11.0,0,0.00,,,0.00,weatherlink.com 1.10,2015-01-30 10:01:00,
2015-01-30 06:16:00,74.8,-99.9,29.94,East,92,8.0,12.0,0,0.00,,,0.00,weatherlink.com 1.10,2015-01-30 10:16:00,
2015-01-30 06:31:00,74.6,-99.9,29.94,East,97,8.0,12.0,0,0.00,,,0.00,weatherlink.com 1.10,2015-01-30 10:31:00,
2015-01-30 06:46:00,74.6,-99.9,29.94,East,93,9.0,12.0,0,0.00,,,0.00,weatherlink.com 1.10,2015-01-30 10:46:00,
2015-01-30 07:01:00,75.0,-99.9,29.95,SE,145,3.0,15.0,0,0.00,,,0.00,weatherlink.com 1.10,2015-01-30 11:01:00,
2015-01-30 07:16:00,75.6,-99.9,29.95,East,98,7.0,14.0,0,0.00,,,0.00,weatherlink.com 1.10,2015-01-30 11:16:00,
2015-01-30 07:32:00,76.2,-99.9,29.96,East,85,6.0,14.0,0,0.00,,,0.00,weatherlink.com 1.10,2015-01-30 11:32:00,
2015-01-30 07:47:00,76.4,-99.9,29.96,East,96,9.0,13.0,0,0.00,,,0.00,weatherlink.com 1.10,2015-01-30 11:47:00,
2015-01-30 08:02:00,76.0,-99.9,29.97,ESE,108,9.0,12.0,0,0.00,,,0.00,weatherlink.com 1.10,2015-01-30 12:02:00,
2015-01-30 08:17:00,76.2,-99.9,29.98,East,94,3.0,8.0,0,0.00,,,0.00,weatherlink.com 1.10,2015-01-30 12:17:00,
2015-01-30 08:32:00,77.4,-99.9,29.99,ESE,105,8.0,11.0,0,0.00,,,0.00,weatherlink.com 1.10,2015-01-30 12:32:00,
2015-01-30 08:47:00,78.3,-99.9,29.99,East,84,9.0,11.0,0,0.00,,,0.00,weatherlink.com 1.10,2015-01-30 12:47:00,
2015-01-30 09:02:00,78.5,-99.9,29.99,ENE,69,5.0,11.0,0,0.00,,,0.00,weatherlink.com 1.10,2015-01-30 13:02:00,
2015-01-30 09:17:00,78.8,32.0,30.00,ENE,62,12.0,17.0,18,0.00,,,0.00,weatherlink.com 1.10,2015-01-30 13:17:00,
2015-01-30 09:32:00,78.9,44.0,30.00,ENE,78,2.0,15.0,29,0.00,,,0.00,weatherlink.com 1.10,2015-01-30 13:32:00,
2015-01-30 09:47:00,80.1,51.0,30.00,ENE,65,1.0,12.0,36,0.00,,,0.00,weatherlink.com 1.10,2015-01-30 13:47:00,
2015-01-30 10:02:00,80.3,54.0,30.00,ESE,108,9.0,13.0,41,0.00,,,0.00,weatherlink.com 1.10,2015-01-30 14:02:00,
2015-01-30 10:17:00,80.8,62.0,30.00,East,96,6.0,13.0,53,0.00,,,0.00,weatherlink.com 1.10,2015-01-30 14:17:00,
2015-01-30 10:32:00,81.6,59.0,29.99,ENE,70,5.0,8.0,47,0.00,,,0.00,weatherlink.com 1.10,2015-01-30 14:32:00,
2015-01-30 10:48:00,81.2,60.0,29.99,ENE,76,7.0,7.0,49,0.00,,,0.00,weatherlink.com 1.10,2015-01-30 14:48:00,
2015-01-30 11:03:00,80.7,61.0,29.98,NE,55,2.0,7.0,51,0.00,,,0.00,weatherlink.com 1.10,2015-01-30 15:03:00,
2015-01-30 11:18:00,79.5,54.0,29.98,ENE,73,5.0,13.0,42,0.00,,,0.00,weatherlink.com 1.10,2015-01-30 15:18:00,
2015-01-30 11:33:00,80.9,62.0,29.98,NE,53,4.0,12.0,52,0.00,,,0.00,weatherlink.com 1.10,2015-01-30 15:33:00,
2015-01-30 11:48:00,81.5,63.0,29.98,East,79,4.0,13.0,53,0.00,,,0.00,weatherlink.com 1.10,2015-01-30 15:48:00,
2015-01-30 12:03:00,80.7,59.0,29.97,ENE,59,5.0,10.0,48,0.00,,,0.00,weatherlink.com 1.10,2015-01-30 16:03:00,
2015-01-30 12:18:00,79.4,58.0,29.97,East,79,6.0,15.0,48,0.00,,,0.00,weatherlink.com 1.10,2015-01-30 16:18:00,
2015-01-30 12:33:00,79.9,53.0,29.97,East,79,4.0,10.0,39,0.00,,,0.00,weatherlink.com 1.10,2015-01-30 16:33:00,
2015-01-30 12:48:00,80.1,49.0,29.96,NE,36,4.0,9.0,34,0.00,,,0.00,weatherlink.com 1.10,2015-01-30 16:48:00,
2015-01-30 13:03:00,79.2,22.0,29.96,East,82,2.0,13.0,12,0.00,,,0.00,weatherlink.com 1.10,2015-01-30 17:03:00,
2015-01-30 13:18:00,79.2,29.0,29.95,East,91,5.0,14.0,16,0.00,,,0.00,weatherlink.com 1.10,2015-01-30 17:18:00,
2015-01-30 13:33:00,79.1,41.0,29.95,East,87,2.0,13.0,26,0.00,,,0.00,weatherlink.com 1.10,2015-01-30 17:33:00,
2015-01-30 13:48:00,79.9,52.0,29.94,ENE,72,6.0,12.0,38,0.00,,,0.00,weatherlink.com 1.10,2015-01-30 17:48:00,
2015-01-30 14:04:00,78.8,24.0,29.93,East,84,11.0,21.0,13,0.00,,,0.00,weatherlink.com 1.10,2015-01-30 18:04:00,
2015-01-30 14:19:00,77.9,-99.9,29.93,East,91,6.0,12.0,0,0.00,,,0.00,weatherlink.com 1.10,2015-01-30 18:19:00,
2015-01-30 14:34:00,79.3,22.0,29.93,East,92,1.0,12.0,12,0.00,,,0.00,weatherlink.com 1.10,2015-01-30 18:34:00,
2015-01-30 14:49:00,79.7,21.0,29.92,ENE,71,3.0,8.0,11,0.00,,,0.00,weatherlink.com 1.10,2015-01-30 18:49:00,
2015-01-30 15:04:00,79.3,48.0,29.92,ESE,106,2.0,10.0,33,0.00,,,0.00,weatherlink.com 1.10,2015-01-30 19:04:00,
2015-01-30 15:19:00,79.9,50.0,29.92,ENE,75,6.0,15.0,35,0.00,,,0.00,weatherlink.com 1.10,2015-01-30 19:19:00,
2015-01-30 15:34:00,79.4,47.0,29.91,East,98,6.0,15.0,32,0.00,,,0.00,weatherlink.com 1.10,2015-01-30 19:34:00,
2015-01-30 15:49:00,79.5,50.0,29.91,ENE,70,9.0,17.0,36,0.00,,,0.00,weatherlink.com 1.10,2015-01-30 19:49:00,
2015-01-30 16:04:00,78.9,41.0,29.91,East,98,4.0,18.0,26,0.00,,,0.00,weatherlink.com 1.10,2015-01-30 20:04:00,
2015-01-30 16:19:00,78.5,30.0,29.91,East,81,11.0,15.0,17,0.00,,,0.00,weatherlink.com 1.10,2015-01-30 20:19:00,
2015-01-30 16:34:00,78.1,-17.0,29.92,SE,124,8.0,14.0,2,0.00,,,0.00,weatherlink.com 1.10,2015-01-30 20:34:00,
2015-01-30 16:49:00,77.5,-99.9,29.92,East,94,11.0,14.0,0,0.00,,,0.00,weatherlink.com 1.10,2015-01-30 20:49:00,
2015-01-30 17:04:00,77.3,-99.9,29.92,ENE,61,1.0,15.0,0,0.00,,,0.00,weatherlink.com 1.10,2015-01-30 21:04:00,
2015-01-30 17:20:00,77.0,-99.9,29.92,East,82,2.0,12.0,0,0.00,,,0.00,weatherlink.com 1.10,2015-01-30 21:20:00,